createdAt,value
2022-09-22T00:00:44.226Z,8.34
2022-09-22T00:01:44.251Z,8.36
2022-09-22T00:02:44.215Z,8.36
2022-09-22T00:03:44.144Z,8.36
2022-09-22T00:04:44.136Z,8.38
2022-09-22T00:05:44.127Z,8.37
2022-09-22T00:06:44.135Z,8.41
2022-09-22T00:07:44.103Z,8.38
2022-09-22T00:08:44.127Z,8.41
2022-09-22T00:09:44.067Z,8.38
2022-09-22T00:10:44.063Z,8.38
2022-09-22T00:11:44.067Z,8.37
2022-09-22T00:12:44.043Z,8.37
2022-09-22T00:13:44.027Z,8.33
2022-09-22T00:14:44.036Z,8.33
2022-09-22T00:15:43.995Z,8.31
2022-09-22T00:16:44.043Z,8.30
2022-09-22T00:17:44.004Z,8.28
2022-09-22T00:18:43.996Z,8.28
2022-09-22T00:19:43.975Z,8.27
2022-09-22T00:20:43.955Z,8.24
2022-09-22T00:21:43.935Z,8.23
2022-09-22T00:22:43.936Z,8.20
2022-09-22T00:23:43.927Z,8.18
2022-09-22T00:24:43.916Z,8.18
2022-09-22T00:25:43.887Z,8.13
2022-09-22T00:26:43.884Z,8.15
2022-09-22T00:27:43.876Z,8.13
2022-09-22T00:28:43.867Z,8.12
2022-09-22T00:29:43.843Z,8.12
2022-09-22T00:30:43.847Z,8.13
2022-09-22T00:31:43.890Z,8.13
2022-09-22T00:32:43.988Z,8.12
2022-09-22T00:33:43.795Z,8.12
2022-09-22T00:34:43.810Z,8.10
2022-09-22T00:35:43.775Z,8.12
2022-09-22T00:36:43.771Z,8.13
2022-09-22T00:37:43.769Z,8.12
2022-09-22T00:38:43.756Z,8.15
2022-09-22T00:39:43.727Z,8.15
2022-09-22T00:40:43.791Z,8.15
2022-09-22T00:41:43.737Z,8.15
2022-09-22T00:42:43.715Z,8.13
2022-09-22T00:43:43.696Z,8.15
2022-09-22T00:44:43.715Z,8.13
2022-09-22T00:45:43.708Z,8.15
2022-09-22T00:46:43.722Z,8.16
2022-09-22T00:47:43.639Z,8.18
2022-09-22T00:48:43.641Z,8.16
2022-09-22T00:49:43.648Z,8.18
2022-09-22T00:50:43.612Z,8.18
2022-09-22T00:51:43.608Z,8.18
2022-09-22T00:52:43.593Z,8.16
2022-09-22T00:53:43.569Z,8.15
2022-09-22T00:54:43.580Z,8.16
2022-09-22T00:55:43.648Z,8.13
2022-09-22T00:56:43.548Z,8.15
2022-09-22T00:57:43.528Z,8.12
2022-09-22T00:58:43.528Z,8.13
2022-09-22T00:59:43.496Z,8.12
2022-09-22T01:00:43.552Z,8.10
2022-09-22T01:01:44.983Z,8.10
2022-09-22T01:02:43.481Z,8.09
2022-09-22T01:03:43.468Z,8.09
2022-09-22T01:04:43.466Z,8.09
2022-09-22T01:05:43.479Z,8.08
2022-09-22T01:06:43.449Z,8.06
2022-09-22T01:07:43.420Z,8.08
2022-09-22T01:08:43.416Z,8.08
2022-09-22T01:09:43.388Z,8.06
2022-09-22T01:10:43.389Z,8.05
2022-09-22T01:11:43.391Z,8.06
2022-09-22T01:12:43.381Z,8.03
2022-09-22T01:13:43.357Z,8.03
2022-09-22T01:14:43.357Z,8.03
2022-09-22T01:15:43.371Z,8.01
2022-09-22T01:16:43.316Z,7.98
2022-09-22T01:17:43.302Z,8.00
2022-09-22T01:18:43.310Z,7.98
2022-09-22T01:19:43.284Z,7.98
2022-09-22T01:20:43.289Z,7.98
2022-09-22T01:21:43.261Z,7.97
2022-09-22T01:22:43.278Z,7.97
2022-09-22T01:23:43.238Z,7.95
2022-09-22T01:24:43.229Z,7.94
2022-09-22T01:25:43.209Z,7.95
2022-09-22T01:26:43.229Z,7.93
2022-09-22T01:27:43.231Z,7.93
2022-09-22T01:28:43.181Z,7.90
2022-09-22T01:29:43.177Z,7.90
2022-09-22T01:30:43.168Z,7.88
2022-09-22T01:31:43.176Z,7.87
2022-09-22T01:32:43.138Z,7.87
2022-09-22T01:33:43.141Z,7.87
2022-09-22T01:34:43.169Z,7.87
2022-09-22T01:35:43.090Z,7.87
2022-09-22T01:36:43.110Z,7.87
2022-09-22T01:37:43.077Z,7.85
2022-09-22T01:38:43.081Z,7.83
2022-09-22T01:39:43.057Z,7.82
2022-09-22T01:40:43.142Z,7.82
2022-09-22T01:41:43.039Z,7.82
2022-09-22T01:42:43.029Z,7.80
2022-09-22T01:43:43.011Z,7.77
2022-09-22T01:44:43.049Z,7.75
2022-09-22T01:45:43.018Z,7.73
2022-09-22T01:46:43.023Z,7.73
2022-09-22T01:47:42.970Z,7.70
2022-09-22T01:48:42.961Z,7.72
2022-09-22T01:49:42.937Z,7.72
2022-09-22T01:50:42.930Z,7.70
2022-09-22T01:51:42.938Z,7.70
2022-09-22T01:52:42.923Z,7.69
2022-09-22T01:53:42.897Z,7.67
2022-09-22T01:54:42.889Z,7.67
2022-09-22T01:55:42.881Z,7.66
2022-09-22T01:56:42.889Z,7.63
2022-09-22T01:57:42.849Z,7.61
2022-09-22T01:58:42.858Z,7.60
2022-09-22T01:59:42.837Z,7.60
2022-09-22T02:00:42.829Z,7.58
2022-09-22T02:01:42.880Z,7.58
2022-09-22T02:02:42.970Z,7.58
2022-09-22T02:03:42.778Z,7.57
2022-09-22T02:04:42.811Z,7.57
2022-09-22T02:05:42.773Z,7.53
2022-09-22T02:06:42.765Z,7.54
2022-09-22T02:07:42.738Z,7.54
2022-09-22T02:08:42.737Z,7.51
2022-09-22T02:09:42.711Z,7.50
2022-09-22T02:10:42.709Z,7.50
2022-09-22T02:11:42.714Z,7.47
2022-09-22T02:12:42.690Z,7.45
2022-09-22T02:13:42.669Z,7.42
2022-09-22T02:14:42.682Z,7.42
2022-09-22T02:15:42.697Z,7.40
2022-09-22T02:16:42.666Z,7.39
2022-09-22T02:17:42.632Z,7.39
2022-09-22T02:18:42.870Z,7.39
2022-09-22T02:19:42.603Z,7.36
2022-09-22T02:20:42.598Z,7.38
2022-09-22T02:21:42.598Z,7.36
2022-09-22T02:22:42.593Z,7.38
2022-09-22T02:23:42.562Z,7.38
2022-09-22T02:24:42.554Z,7.38
2022-09-22T02:25:42.538Z,7.36
2022-09-22T02:26:42.550Z,7.36
2022-09-22T02:27:42.510Z,7.36
2022-09-22T02:28:42.511Z,7.35
2022-09-22T02:29:42.502Z,7.35
2022-09-22T02:30:50.565Z,7.36
2022-09-22T02:31:43.552Z,7.39
2022-09-22T02:32:42.458Z,7.40
2022-09-22T02:33:42.450Z,7.42
2022-09-22T02:34:42.454Z,7.42
2022-09-22T02:35:42.422Z,7.42
2022-09-22T02:36:42.423Z,7.42
2022-09-22T02:37:42.490Z,7.42
2022-09-22T02:38:42.403Z,7.43
2022-09-22T02:39:42.380Z,7.40
2022-09-22T02:40:42.436Z,7.40
2022-09-22T02:41:42.351Z,7.38
2022-09-22T02:42:42.362Z,7.36
2022-09-22T02:43:42.490Z,7.33
2022-09-22T02:44:42.385Z,7.33
2022-09-22T02:45:42.310Z,7.32
2022-09-22T02:46:42.372Z,7.31
2022-09-22T02:47:42.290Z,7.29
2022-09-22T02:48:42.291Z,7.25
2022-09-22T02:49:42.262Z,7.24
2022-09-22T02:50:43.139Z,7.23
2022-09-22T02:51:42.251Z,7.21
2022-09-22T02:52:42.239Z,7.17
2022-09-22T02:53:42.223Z,7.14
2022-09-22T02:54:42.243Z,7.13
2022-09-22T02:55:42.202Z,7.07
2022-09-22T02:56:42.191Z,7.06
2022-09-22T02:57:42.171Z,7.06
2022-09-22T02:58:42.190Z,7.03
2022-09-22T02:59:42.160Z,7.03
2022-09-22T03:00:42.170Z,7.03
2022-09-22T03:01:42.179Z,7.03
2022-09-22T03:02:42.123Z,7.03
2022-09-22T03:03:42.119Z,7.05
2022-09-22T03:04:42.177Z,7.05
2022-09-22T03:05:42.082Z,7.03
2022-09-22T03:06:42.131Z,7.05
2022-09-22T03:07:42.051Z,7.05
2022-09-22T03:08:42.072Z,7.07
2022-09-22T03:09:42.047Z,7.07
2022-09-22T03:10:42.047Z,7.06
2022-09-22T03:11:42.011Z,7.07
2022-09-22T03:12:56.739Z,7.05
2022-09-22T03:13:43.007Z,7.07
2022-09-22T03:14:42.000Z,7.10
2022-09-22T03:15:41.992Z,7.11
2022-09-22T03:16:41.971Z,7.13
2022-09-22T03:17:41.963Z,7.13
2022-09-22T03:18:41.943Z,7.11
2022-09-22T03:19:41.911Z,7.13
2022-09-22T03:20:41.926Z,7.13
2022-09-22T03:21:41.914Z,7.13
2022-09-22T03:22:41.904Z,7.14
2022-09-22T03:23:41.872Z,7.11
2022-09-22T03:24:41.903Z,7.10
2022-09-22T03:25:41.851Z,7.07
2022-09-22T03:26:41.887Z,7.07
2022-09-22T03:27:41.856Z,7.06
2022-09-22T03:28:41.852Z,7.03
2022-09-22T03:29:41.831Z,7.02
2022-09-22T03:30:41.882Z,6.99
2022-09-22T03:31:41.791Z,6.97
2022-09-22T03:32:41.788Z,6.96
2022-09-22T03:33:41.783Z,6.95
2022-09-22T03:34:41.814Z,6.93
2022-09-22T03:35:41.764Z,6.93
2022-09-22T03:36:41.744Z,6.92
2022-09-22T03:37:41.723Z,6.92
2022-09-22T03:38:41.797Z,6.89
2022-09-22T03:39:41.724Z,6.88
2022-09-22T03:40:41.794Z,6.87
2022-09-22T03:41:41.685Z,6.87
2022-09-22T03:42:41.667Z,6.87
2022-09-22T03:43:41.651Z,6.88
2022-09-22T03:44:41.663Z,6.87
2022-09-22T03:45:41.744Z,6.88
2022-09-22T03:46:41.631Z,6.88
2022-09-22T03:47:41.625Z,6.92
2022-09-22T03:48:44.944Z,6.89
2022-09-22T03:49:41.605Z,6.93
2022-09-22T03:50:41.743Z,6.92
2022-09-22T03:51:41.572Z,6.93
2022-09-22T03:52:41.568Z,6.93
2022-09-22T03:53:41.540Z,6.93
2022-09-22T03:54:41.543Z,6.95
2022-09-22T03:55:41.521Z,6.95
2022-09-22T03:56:41.537Z,6.96
2022-09-22T03:57:41.505Z,6.97
2022-09-22T03:58:41.492Z,6.97
2022-09-22T03:59:41.485Z,6.99
2022-09-22T04:00:41.463Z,6.96
2022-09-22T04:01:41.557Z,6.97
2022-09-22T04:02:41.578Z,6.96
2022-09-22T04:03:41.444Z,6.93
2022-09-22T04:04:41.421Z,6.88
2022-09-22T04:05:41.413Z,6.87
2022-09-22T04:06:41.392Z,6.87
2022-09-22T04:07:41.404Z,6.81
2022-09-22T04:08:41.373Z,6.79
2022-09-22T04:09:41.364Z,6.78
2022-09-22T04:10:41.361Z,6.75
2022-09-22T04:11:41.364Z,6.74
2022-09-22T04:12:41.322Z,6.72
2022-09-22T04:13:46.078Z,6.70
2022-09-22T04:14:42.332Z,6.69
2022-09-22T04:15:41.333Z,6.69
2022-09-22T04:16:41.325Z,6.70
2022-09-22T04:17:41.282Z,6.69
2022-09-22T04:18:41.421Z,6.67
2022-09-22T04:19:41.254Z,6.66
2022-09-22T04:20:41.246Z,6.66
2022-09-22T04:21:41.262Z,6.64
2022-09-22T04:22:41.221Z,6.64
2022-09-22T04:23:41.233Z,6.64
2022-09-22T04:24:41.193Z,6.64
2022-09-22T04:25:41.183Z,6.64
2022-09-22T04:26:56.367Z,6.63
2022-09-22T04:27:42.161Z,6.63
2022-09-22T04:28:41.142Z,6.64
2022-09-22T04:29:41.162Z,6.67
2022-09-22T04:30:41.143Z,6.64
2022-09-22T04:31:41.142Z,6.66
2022-09-22T04:32:41.093Z,6.63
2022-09-22T04:33:41.106Z,6.63
2022-09-22T04:34:41.074Z,6.63
2022-09-22T04:35:41.102Z,6.62
2022-09-22T04:36:41.062Z,6.62
2022-09-22T04:37:41.054Z,6.60
2022-09-22T04:38:41.025Z,6.57
2022-09-22T04:39:41.026Z,6.57
2022-09-22T04:40:41.110Z,6.57
2022-09-22T04:41:41.038Z,6.54
2022-09-22T04:42:40.982Z,6.54
2022-09-22T04:43:40.994Z,6.52
2022-09-22T04:44:40.978Z,6.52
2022-09-22T04:45:40.989Z,6.51
2022-09-22T04:46:40.943Z,6.51
2022-09-22T04:47:40.942Z,6.49
2022-09-22T04:48:40.915Z,6.48
2022-09-22T04:49:41.870Z,6.46
2022-09-22T04:50:45.724Z,6.48
2022-09-22T04:51:41.884Z,6.46
2022-09-22T04:52:40.862Z,6.45
2022-09-22T04:53:40.863Z,6.45
2022-09-22T04:54:40.842Z,6.42
2022-09-22T04:55:40.863Z,6.42
2022-09-22T04:56:40.815Z,6.42
2022-09-22T04:57:40.854Z,6.42
2022-09-22T04:58:40.807Z,6.42
2022-09-22T04:59:40.807Z,6.44
2022-09-22T05:00:40.782Z,6.42
2022-09-22T05:01:40.856Z,6.42
2022-09-22T05:02:40.791Z,6.42
2022-09-22T05:03:40.821Z,6.42
2022-09-22T05:04:40.743Z,6.41
2022-09-22T05:05:40.736Z,6.41
2022-09-22T05:06:40.722Z,6.41
2022-09-22T05:07:40.714Z,6.41
2022-09-22T05:08:40.715Z,6.41
2022-09-22T05:09:40.689Z,6.38
2022-09-22T05:10:40.662Z,6.38
2022-09-22T05:11:40.668Z,6.38
2022-09-22T05:12:40.642Z,6.41
2022-09-22T05:13:40.642Z,6.41
2022-09-22T05:14:40.634Z,6.41
2022-09-22T05:15:40.634Z,6.42
2022-09-22T05:16:40.609Z,6.44
2022-09-22T05:17:40.603Z,6.44
2022-09-22T05:18:40.582Z,6.41
2022-09-22T05:19:40.833Z,6.41
2022-09-22T05:20:40.562Z,6.39
2022-09-22T05:21:40.562Z,6.38
2022-09-22T05:22:40.536Z,6.39
2022-09-22T05:23:40.542Z,6.38
2022-09-22T05:24:40.542Z,6.36
2022-09-22T05:25:40.522Z,6.38
2022-09-22T05:26:40.514Z,6.36
2022-09-22T05:27:40.495Z,6.35
2022-09-22T05:28:40.462Z,6.35
2022-09-22T05:29:40.466Z,6.35
2022-09-22T05:30:40.434Z,6.33
2022-09-22T05:31:40.498Z,6.35
2022-09-22T05:32:40.438Z,6.33
2022-09-22T05:33:40.422Z,6.33
2022-09-22T05:34:40.542Z,6.31
2022-09-22T05:35:40.423Z,6.35
2022-09-22T05:36:40.383Z,6.35
2022-09-22T05:37:40.374Z,6.33
2022-09-22T05:38:40.350Z,6.36
2022-09-22T05:39:40.354Z,6.38
2022-09-22T05:40:40.426Z,6.38
2022-09-22T05:41:40.334Z,6.39
2022-09-22T05:42:40.314Z,6.39
2022-09-22T05:43:40.303Z,6.41
2022-09-22T05:44:40.300Z,6.42
2022-09-22T05:45:40.341Z,6.44
2022-09-22T05:46:40.262Z,6.44
2022-09-22T05:47:40.294Z,6.44
2022-09-22T05:48:40.243Z,6.45
2022-09-22T05:49:40.234Z,6.46
2022-09-22T05:50:40.222Z,6.46
2022-09-22T05:51:40.214Z,6.46
2022-09-22T05:52:40.188Z,6.48
2022-09-22T05:53:40.314Z,6.48
2022-09-22T05:54:40.180Z,6.48
2022-09-22T05:55:40.175Z,6.48
2022-09-22T05:56:40.155Z,6.48
2022-09-22T05:57:40.159Z,6.49
2022-09-22T05:58:40.134Z,6.48
2022-09-22T05:59:40.463Z,6.51
2022-09-22T06:00:40.201Z,6.52
2022-09-22T06:01:40.115Z,6.54
2022-09-22T06:02:40.167Z,6.54
2022-09-22T06:03:40.083Z,6.56
2022-09-22T06:04:40.083Z,6.57
2022-09-22T06:05:40.052Z,6.59
2022-09-22T06:06:40.235Z,6.57
2022-09-22T06:07:40.027Z,6.60
2022-09-22T06:08:41.413Z,6.60
2022-09-22T06:09:40.022Z,6.62
2022-09-22T06:10:39.983Z,6.64
2022-09-22T06:11:39.996Z,6.66
2022-09-22T06:12:39.983Z,6.70
2022-09-22T06:13:39.967Z,6.70
2022-09-22T06:14:39.955Z,6.70
2022-09-22T06:15:39.952Z,6.74
2022-09-22T06:16:39.992Z,6.75
2022-09-22T06:17:39.955Z,6.75
2022-09-22T06:18:39.903Z,6.78
2022-09-22T06:19:39.922Z,6.78
2022-09-22T06:20:39.875Z,6.79
2022-09-22T06:21:39.875Z,6.84
2022-09-22T06:22:39.856Z,6.85
2022-09-22T06:23:42.861Z,6.92
2022-09-22T06:24:39.835Z,6.95
2022-09-22T06:25:39.839Z,6.97
2022-09-22T06:26:39.803Z,6.99
2022-09-22T06:27:39.823Z,7.06
2022-09-22T06:28:39.795Z,7.07
2022-09-22T06:29:39.783Z,7.13
2022-09-22T06:30:39.763Z,7.13
2022-09-22T06:31:39.816Z,7.15
2022-09-22T06:32:39.744Z,7.18
2022-09-22T06:33:39.755Z,7.20
2022-09-22T06:34:39.723Z,7.23
2022-09-22T06:35:39.727Z,7.25
2022-09-22T06:36:39.727Z,7.29
2022-09-22T06:37:39.703Z,7.32
2022-09-22T06:38:39.735Z,7.36
2022-09-22T06:39:39.663Z,7.40
2022-09-22T06:40:39.734Z,7.42
2022-09-22T06:41:39.644Z,7.47
2022-09-22T06:42:39.623Z,7.48
2022-09-22T06:43:39.644Z,7.51
2022-09-22T06:44:39.636Z,7.56
2022-09-22T06:45:39.627Z,7.58
2022-09-22T06:46:39.624Z,7.60
2022-09-22T06:47:39.583Z,7.63
2022-09-22T06:48:39.627Z,7.69
2022-09-22T06:49:39.563Z,7.72
2022-09-22T06:50:39.544Z,7.77
2022-09-22T06:51:39.535Z,7.82
2022-09-22T06:52:39.524Z,7.88
2022-09-22T06:53:39.537Z,7.93
2022-09-22T06:54:39.500Z,7.95
2022-09-22T06:55:39.484Z,8.01
2022-09-22T06:56:39.504Z,8.05
2022-09-22T06:57:39.472Z,8.08
2022-09-22T06:59:05.577Z,8.13
2022-09-22T06:59:40.445Z,8.15
2022-09-22T07:00:39.527Z,8.19
2022-09-22T07:01:39.592Z,8.23
2022-09-22T07:02:39.404Z,8.26
2022-09-22T07:03:39.404Z,8.28
2022-09-22T07:04:39.396Z,8.31
2022-09-22T07:05:39.386Z,8.34
2022-09-22T07:06:39.376Z,8.37
2022-09-22T07:07:39.364Z,8.42
2022-09-22T07:08:39.358Z,8.45
2022-09-22T07:09:39.337Z,8.48
2022-09-22T07:10:39.316Z,8.51
2022-09-22T07:11:40.466Z,8.53
2022-09-22T07:12:39.297Z,8.55
2022-09-22T07:13:39.306Z,8.56
2022-09-22T07:14:39.290Z,8.61
2022-09-22T07:15:39.256Z,8.64
2022-09-22T07:16:39.308Z,8.69
2022-09-22T07:17:39.236Z,8.70
2022-09-22T07:18:39.224Z,8.76
2022-09-22T07:19:39.224Z,8.79
2022-09-22T07:20:39.204Z,8.85
2022-09-22T07:21:39.360Z,8.91
2022-09-22T07:22:39.182Z,8.92
2022-09-22T07:23:39.184Z,8.97
2022-09-22T07:24:39.169Z,9.03
2022-09-22T07:25:39.164Z,9.06
2022-09-22T07:26:39.125Z,9.11
2022-09-22T07:27:39.140Z,9.16
2022-09-22T07:28:39.744Z,9.21
2022-09-22T07:29:39.116Z,9.22
2022-09-22T07:30:39.085Z,9.28
2022-09-22T07:31:39.134Z,9.29
2022-09-22T07:32:39.077Z,9.36
2022-09-22T07:33:39.064Z,9.36
2022-09-22T07:34:39.044Z,9.41
2022-09-22T07:35:39.045Z,9.44
2022-09-22T07:36:39.028Z,9.48
2022-09-22T07:37:39.032Z,9.55
2022-09-22T07:38:39.009Z,9.59
2022-09-22T07:39:38.984Z,9.64
2022-09-22T07:40:39.075Z,9.68
2022-09-22T07:41:38.976Z,9.76
2022-09-22T07:42:38.958Z,9.82
2022-09-22T07:43:38.977Z,9.86
2022-09-22T07:44:43.715Z,9.91
2022-09-22T07:45:39.928Z,9.97
2022-09-22T07:46:38.957Z,10.02
2022-09-22T07:47:38.904Z,10.05
2022-09-22T07:48:39.245Z,10.13
2022-09-22T07:49:38.877Z,10.17
2022-09-22T07:50:38.869Z,10.23
2022-09-22T07:51:38.865Z,10.31
2022-09-22T07:52:38.838Z,10.35
2022-09-22T07:53:38.841Z,10.46
2022-09-22T07:54:38.877Z,10.54
2022-09-22T07:55:38.816Z,10.63
2022-09-22T07:56:38.817Z,10.69
2022-09-22T07:57:38.797Z,10.76
2022-09-22T07:58:38.770Z,10.82
2022-09-22T07:59:38.785Z,10.87
2022-09-22T08:00:38.768Z,10.92
2022-09-22T08:01:38.775Z,10.97
2022-09-22T08:02:38.738Z,11.02
2022-09-22T08:03:38.737Z,11.07
2022-09-22T08:04:38.720Z,11.12
2022-09-22T08:05:38.810Z,11.19
2022-09-22T08:06:38.686Z,11.23
2022-09-22T08:07:38.677Z,11.32
2022-09-22T08:08:38.917Z,11.37
2022-09-22T08:09:38.649Z,11.51
2022-09-22T08:10:38.637Z,11.62
2022-09-22T08:11:38.647Z,11.75
2022-09-22T08:12:38.611Z,11.84
2022-09-22T08:13:38.618Z,11.90
2022-09-22T08:14:38.610Z,11.95
2022-09-22T08:15:38.578Z,12.07
2022-09-22T08:16:38.586Z,12.21
2022-09-22T08:17:38.557Z,12.25
2022-09-22T08:18:38.557Z,12.29
2022-09-22T08:19:38.537Z,12.36
2022-09-22T08:20:42.876Z,12.43
2022-09-22T08:21:47.964Z,12.49
2022-09-22T08:22:39.517Z,12.62
2022-09-22T08:23:38.498Z,12.68
2022-09-22T08:24:38.497Z,12.73
2022-09-22T08:25:38.465Z,12.78
2022-09-22T08:26:38.461Z,12.86
2022-09-22T08:27:38.451Z,12.98
2022-09-22T08:28:38.609Z,13.18
2022-09-22T08:29:38.440Z,13.38
2022-09-22T08:30:38.420Z,13.41
2022-09-22T08:31:38.411Z,13.50
2022-09-22T08:32:38.400Z,13.63
2022-09-22T08:33:38.422Z,13.71
2022-09-22T08:34:38.389Z,13.83
2022-09-22T08:35:38.350Z,13.92
2022-09-22T08:36:38.345Z,14.00
2022-09-22T08:37:38.330Z,14.15
2022-09-22T08:38:38.330Z,14.15
2022-09-22T08:39:38.319Z,14.17
2022-09-22T08:40:38.346Z,14.29
2022-09-22T08:41:38.338Z,14.65
2022-09-22T08:42:38.290Z,14.69
2022-09-22T08:43:38.269Z,14.92
2022-09-22T08:44:38.292Z,14.99
2022-09-22T08:45:38.250Z,15.09
2022-09-22T08:46:38.286Z,15.02
2022-09-22T08:47:38.210Z,15.00
2022-09-22T08:48:38.282Z,15.07
2022-09-22T08:49:38.190Z,15.42
2022-09-22T08:50:38.202Z,15.49
2022-09-22T08:51:38.171Z,15.44
2022-09-22T08:52:38.170Z,15.37
2022-09-22T08:53:38.151Z,15.55
2022-09-22T08:54:38.146Z,15.72
2022-09-22T08:55:38.143Z,15.37
2022-09-22T08:56:38.131Z,15.39
2022-09-22T08:57:38.105Z,15.11
2022-09-22T08:58:38.102Z,14.88
2022-09-22T08:59:38.090Z,14.86
2022-09-22T09:00:42.475Z,14.86
2022-09-22T09:01:38.114Z,14.94
2022-09-22T09:02:38.133Z,15.10
2022-09-22T09:03:38.031Z,15.39
2022-09-22T09:04:38.062Z,15.58
2022-09-22T09:05:38.023Z,15.73
2022-09-22T09:06:38.011Z,15.73
2022-09-22T09:07:37.983Z,15.65
2022-09-22T09:08:37.991Z,15.70
2022-09-22T09:09:37.991Z,15.88
2022-09-22T09:10:37.974Z,16.26
2022-09-22T09:11:37.950Z,16.64
2022-09-22T09:12:37.956Z,16.97
2022-09-22T09:13:37.932Z,17.23
2022-09-22T09:14:37.922Z,17.41
2022-09-22T09:15:38.059Z,17.31
2022-09-22T09:16:38.128Z,16.90
2022-09-22T09:17:37.874Z,16.65
2022-09-22T09:18:37.884Z,16.49
2022-09-22T09:19:37.862Z,16.54
2022-09-22T09:20:37.994Z,16.90
2022-09-22T09:21:37.834Z,17.15
2022-09-22T09:22:37.823Z,17.33
2022-09-22T09:25:38.803Z,16.66
2022-09-22T09:26:37.782Z,16.54
2022-09-22T09:27:37.766Z,16.36
2022-09-22T09:28:37.774Z,16.51
2022-09-22T09:29:37.755Z,16.50
2022-09-22T09:30:37.755Z,16.42
2022-09-22T09:31:37.734Z,16.33
2022-09-22T09:32:37.716Z,16.38
2022-09-22T09:33:37.695Z,16.43
2022-09-22T09:34:37.807Z,16.64
2022-09-22T09:35:41.191Z,16.53
2022-09-22T09:36:37.677Z,16.50
2022-09-22T09:37:37.647Z,16.75
2022-09-22T09:38:37.667Z,16.91
2022-09-22T09:39:37.615Z,17.23
2022-09-22T09:40:37.664Z,17.67
2022-09-22T09:41:37.615Z,18.10
2022-09-22T09:42:37.607Z,18.20
2022-09-22T09:43:37.587Z,18.29
2022-09-22T09:44:37.588Z,18.34
2022-09-22T09:45:37.559Z,18.45
2022-09-22T09:46:37.616Z,18.49
2022-09-22T09:47:37.646Z,18.41
2022-09-22T09:48:37.539Z,18.23
2022-09-22T09:49:37.524Z,17.97
2022-09-22T09:50:37.527Z,17.70
2022-09-22T09:51:39.768Z,17.26
2022-09-22T09:52:37.496Z,16.94
2022-09-22T09:53:41.035Z,16.87
2022-09-22T09:54:37.482Z,16.84
2022-09-22T09:55:37.487Z,16.84
2022-09-22T09:56:37.443Z,16.76
2022-09-22T09:57:38.211Z,16.79
2022-09-22T09:58:37.428Z,16.86
2022-09-22T09:59:37.412Z,17.05
2022-09-22T10:00:37.399Z,17.38
2022-09-22T10:01:37.422Z,17.76
2022-09-22T10:02:37.372Z,18.15
2022-09-22T10:03:37.391Z,18.38
2022-09-22T10:04:37.359Z,18.58
2022-09-22T10:05:37.343Z,18.62
2022-09-22T10:06:37.339Z,18.80
2022-09-22T10:07:37.387Z,18.88
2022-09-22T10:08:37.312Z,19.00
2022-09-22T10:09:37.389Z,19.09
2022-09-22T10:10:37.297Z,19.11
2022-09-22T10:11:37.280Z,18.60
2022-09-22T10:12:37.280Z,18.44
2022-09-22T10:13:37.252Z,18.33
2022-09-22T10:14:37.243Z,18.11
2022-09-22T10:15:37.293Z,18.05
2022-09-22T10:16:37.235Z,18.00
2022-09-22T10:17:37.356Z,18.11
2022-09-22T10:18:37.192Z,18.00
2022-09-22T10:19:37.173Z,17.92
2022-09-22T10:20:37.184Z,18.03
2022-09-22T10:21:37.174Z,18.13
2022-09-22T10:22:39.797Z,18.22
2022-09-22T10:23:37.133Z,18.31
2022-09-22T10:24:37.144Z,18.33
2022-09-22T10:25:37.112Z,18.23
2022-09-22T10:26:37.160Z,18.34
2022-09-22T10:27:37.105Z,18.37
2022-09-22T10:28:37.083Z,18.50
2022-09-22T10:29:37.063Z,18.38
2022-09-22T10:30:37.052Z,18.41
2022-09-22T10:31:37.044Z,18.52
2022-09-22T10:32:37.100Z,18.63
2022-09-22T10:33:41.704Z,18.75
2022-09-22T10:34:38.066Z,18.73
2022-09-22T10:35:36.995Z,18.63
2022-09-22T10:36:37.008Z,18.56
2022-09-22T10:37:38.656Z,18.50
2022-09-22T10:38:37.056Z,18.49
2022-09-22T10:39:36.955Z,18.49
2022-09-22T10:40:37.009Z,18.49
2022-09-22T10:41:36.937Z,18.49
2022-09-22T10:42:36.955Z,18.38
2022-09-22T10:43:36.908Z,18.35
2022-09-22T10:44:40.178Z,18.26
2022-09-22T10:45:37.877Z,18.28
2022-09-22T10:46:36.949Z,18.29
2022-09-22T10:47:36.856Z,18.34
2022-09-22T10:48:36.860Z,18.37
2022-09-22T10:49:36.845Z,18.33
2022-09-22T10:50:36.839Z,18.19
2022-09-22T10:51:36.840Z,17.85
2022-09-22T10:52:36.828Z,17.68
2022-09-22T10:53:36.801Z,17.60
2022-09-22T10:54:36.933Z,17.48
2022-09-22T10:55:36.772Z,17.39
2022-09-22T10:56:36.780Z,17.39
2022-09-22T10:57:37.102Z,17.34
2022-09-22T10:58:36.748Z,17.38
2022-09-22T10:59:36.728Z,17.45
2022-09-22T11:00:39.063Z,17.48
2022-09-22T11:01:36.752Z,17.48
2022-09-22T11:02:36.720Z,17.48
2022-09-22T11:03:36.680Z,17.54
2022-09-22T11:04:36.772Z,17.59
2022-09-22T11:05:36.669Z,17.51
2022-09-22T11:06:36.660Z,17.48
2022-09-22T11:07:36.656Z,17.52
2022-09-22T11:08:36.633Z,17.60
2022-09-22T11:09:36.680Z,17.71
2022-09-22T11:10:36.621Z,17.82
2022-09-22T11:11:39.492Z,17.92
2022-09-22T11:12:36.601Z,18.04
2022-09-22T11:13:36.564Z,18.13
2022-09-22T11:14:36.573Z,18.18
2022-09-22T11:15:36.676Z,18.11
2022-09-22T11:16:36.544Z,18.18
2022-09-22T11:17:36.552Z,18.20
2022-09-22T11:18:39.677Z,18.23
2022-09-22T11:19:36.492Z,18.23
2022-09-22T11:20:36.506Z,18.08
2022-09-22T11:21:36.480Z,18.01
2022-09-22T11:22:36.493Z,17.92
2022-09-22T11:23:36.452Z,17.89
2022-09-22T11:24:36.472Z,17.89
2022-09-22T11:25:36.444Z,17.94
2022-09-22T11:26:36.424Z,17.97
2022-09-22T11:27:36.457Z,18.04
2022-09-22T11:28:36.427Z,18.15
2022-09-22T11:29:36.385Z,18.25
2022-09-22T11:30:36.426Z,18.29
2022-09-22T11:31:36.357Z,18.34
2022-09-22T11:32:36.366Z,18.38
2022-09-22T11:33:36.366Z,18.41
2022-09-22T11:34:36.356Z,18.43
2022-09-22T11:35:36.316Z,18.40
2022-09-22T11:36:36.316Z,18.37
2022-09-22T11:37:36.297Z,18.35
2022-09-22T11:38:36.296Z,18.31
2022-09-22T11:39:36.290Z,18.31
2022-09-22T11:40:36.426Z,18.33
2022-09-22T11:41:36.248Z,18.35
2022-09-22T11:42:36.249Z,18.35
2022-09-22T11:43:36.225Z,18.40
2022-09-22T11:44:36.255Z,18.41
2022-09-22T11:45:36.217Z,18.38
2022-09-22T11:46:36.208Z,18.29
2022-09-22T11:47:36.209Z,18.25
2022-09-22T11:48:36.176Z,18.18
2022-09-22T11:49:36.176Z,18.13
2022-09-22T11:50:36.157Z,17.98
2022-09-22T11:51:36.151Z,17.90
2022-09-22T11:52:36.140Z,17.89
2022-09-22T11:53:36.129Z,17.85
2022-09-22T11:54:36.121Z,17.89
2022-09-22T11:55:36.097Z,17.92
2022-09-22T11:56:36.101Z,18.01
2022-09-22T11:57:36.126Z,18.08
2022-09-22T11:58:36.082Z,18.20
2022-09-22T11:59:36.048Z,18.33
2022-09-22T12:00:36.057Z,18.43
2022-09-22T12:01:36.021Z,18.58
2022-09-22T12:02:36.115Z,18.74
2022-09-22T12:03:36.163Z,18.90
2022-09-22T12:04:36.009Z,19.09
2022-09-22T12:05:35.981Z,19.27
2022-09-22T12:06:36.601Z,19.37
2022-09-22T12:07:35.979Z,19.45
2022-09-22T12:08:35.973Z,19.59
2022-09-22T12:09:36.887Z,19.82
2022-09-22T12:10:35.954Z,19.89
2022-09-22T12:11:35.923Z,19.96
2022-09-22T12:12:35.925Z,20.09
2022-09-22T12:13:35.885Z,20.18
2022-09-22T12:14:35.902Z,20.25
2022-09-22T12:15:35.961Z,20.21
2022-09-22T12:16:35.873Z,20.29
2022-09-22T12:17:35.865Z,20.44
2022-09-22T12:18:35.865Z,20.60
2022-09-22T12:19:35.866Z,20.62
2022-09-22T12:20:35.833Z,20.40
2022-09-22T12:21:35.818Z,20.32
2022-09-22T12:22:35.825Z,20.44
2022-09-22T12:23:35.807Z,20.56
2022-09-22T12:24:35.786Z,20.67
2022-09-22T12:25:48.004Z,20.74
2022-09-22T12:26:36.757Z,20.51
2022-09-22T12:27:35.738Z,20.56
2022-09-22T12:28:35.737Z,20.67
2022-09-22T12:29:35.737Z,20.77
2022-09-22T12:30:35.753Z,20.72
2022-09-22T12:31:35.707Z,20.65
2022-09-22T12:32:35.713Z,20.67
2022-09-22T12:33:35.685Z,20.70
2022-09-22T12:34:35.687Z,20.69
2022-09-22T12:35:35.658Z,20.44
2022-09-22T12:36:35.638Z,20.18
2022-09-22T12:37:35.666Z,19.92
2022-09-22T12:38:35.617Z,19.86
2022-09-22T12:39:35.630Z,19.86
2022-09-22T12:40:35.686Z,19.81
2022-09-22T12:41:35.590Z,19.76
2022-09-22T12:42:35.581Z,19.77
2022-09-22T12:43:35.577Z,19.82
2022-09-22T12:44:35.549Z,19.67
2022-09-22T12:45:35.557Z,19.62
2022-09-22T12:46:35.709Z,19.74
2022-09-22T12:47:35.530Z,20.02
2022-09-22T12:48:35.527Z,20.21
2022-09-22T12:49:35.501Z,20.41
2022-09-22T12:50:35.495Z,20.69
2022-09-22T12:51:35.513Z,20.80
2022-09-22T12:52:35.480Z,20.97
2022-09-22T12:53:38.073Z,21.12
2022-09-22T12:54:36.450Z,21.25
2022-09-22T12:55:35.433Z,21.35
2022-09-22T12:56:35.415Z,21.37
2022-09-22T12:57:36.357Z,21.39
2022-09-22T12:58:35.395Z,21.33
2022-09-22T12:59:35.404Z,21.06
2022-09-22T13:00:35.362Z,20.82
2022-09-22T13:01:35.511Z,20.63
2022-09-22T13:02:35.354Z,20.36
2022-09-22T13:03:35.343Z,20.22
2022-09-22T13:04:35.315Z,20.11
2022-09-22T13:05:35.347Z,19.96
2022-09-22T13:06:35.736Z,19.74
2022-09-22T13:07:35.296Z,19.48
2022-09-22T13:08:35.276Z,19.27
2022-09-22T13:09:35.275Z,19.16